Springfield, OH (45505)

5:00 PM EDT on March 29, 2015 (GMT -0400)
Werner Ent. Springfield, OH | | Change Station
CLOSE
Current Station
Personal Weather Station
Location: Springfield, OH
Elevation: 1048 ft
Nearby Weather Stations

Elev 1048 ft 39.90 °N, 83.73 °W | Updated 2 seconds ago

Partly Cloudy
Partly Cloudy
44.9 °F
Feels Like 37 °F
N
18.0
Wind Variable Wind from SSW
Gusts 25.0 mph

Today
High -- | Low -- °F
--% Chance of Precip.
Yesterday
High -- | Low -- °F
Precip. -- in
7:24 AM 7:56 PM
Waxing Gibbous, 74% visible
Pressure 30.11 in
Visibility 10.0 miles
Clouds Few 14000 ft
Overcast 19000 ft
Windchill 37 °F
Dew Point 22 °F
Humidity 40%
Rainfall 0.00 in
Snow Depth Not available.
UV 0.0 out of 12
Pollen 8.30 out of 12
Air Quality Not available.
Flu Activity Not available.
METAR KFFO 291958Z 18018G24KT 10SM FEW140 OVC190 09/M10 A3008 RMK AO2A PK WND 16026/06 SLP196 T00871104

More Conditions Fewer Conditions

Pressure 30.11 in
Visibility 10.0 miles
Clouds Few 14000 ft
Overcast 19000 ft
Windchill 37 °F
Dew Point 22 °F
Humidity 40%
Rainfall 0.00 in
Snow Depth Not available.
UV 0.0 out of 12
Pollen 8.30 out of 12
Air Quality Not available.
Flu Activity Not available.
METAR KFFO 291958Z 18018G24KT 10SM FEW140 OVC190 09/M10 A3008 RMK AO2A PK WND 16026/06 SLP196 T00871104

More Conditions Fewer Conditions

10-Day Weather Forecast

Almanac

Astronomy

Mar. 29, 2015 Rise Set
Actual Time
Civil Twilight
Nautical Twilight
Astronomical Twilight
Moon
Length of Visible Light
Length of Day
Tomorrow will be .
, % of the Moon is Illuminated

Today's Extremes

State Highs State Lows

Community

WunderPhotos

Upload Photos

1,809,349 photos uploaded!

WunderBlogs® & News

Nearby

Air Quality

  Air Quality AQ Index Pollutant
Not available.

Snow Depth

Station Depth Elevation

Earthquake Activity

City Distance Mag. Time & Date
Minimum magnitude displayed is 2.5.

Coastal Water Temperatures

Place Temperature

Stations

Nearby Weather Stations

Station Location Temp. Windchill Dew Point Humidity Wind Precip. Elev Updated Type